createdAt,value
2022-11-09T00:01:29.211Z,10.68
2022-11-09T00:04:00.834Z,10.67
2022-11-09T00:10:54.887Z,10.66
2022-11-09T00:13:22.125Z,10.65
2022-11-09T00:15:49.049Z,10.65
2022-11-09T00:18:15.385Z,10.64
2022-11-09T00:20:47.248Z,10.64
2022-11-09T00:23:14.250Z,10.63
2022-11-09T00:25:40.643Z,10.64
2022-11-09T00:28:07.012Z,10.61
2022-11-09T00:30:33.375Z,10.59
2022-11-09T00:33:06.493Z,10.58
2022-11-09T00:35:55.654Z,10.57
2022-11-09T00:41:18.026Z,10.56
2022-11-09T00:44:38.041Z,10.56
2022-11-09T00:47:55.821Z,10.57
2022-11-09T00:56:25.728Z,10.57
2022-11-09T00:59:01.313Z,10.56
2022-11-09T01:01:35.886Z,10.58
2022-11-09T01:04:54.721Z,10.61
2022-11-09T01:07:12.561Z,10.65
2022-11-09T01:09:43.436Z,10.69
2022-11-09T01:12:16.459Z,10.67
2022-11-09T01:14:47.058Z,10.69
2022-11-09T01:17:14.169Z,10.74
2022-11-09T01:19:42.312Z,10.77
2022-11-09T01:22:12.631Z,10.80
2022-11-09T01:24:42.612Z,10.85
2022-11-09T01:27:10.071Z,10.92
2022-11-09T01:29:40.263Z,11.02
2022-11-09T01:32:07.521Z,11.10
2022-11-09T01:34:34.566Z,11.18
2022-11-09T01:37:02.117Z,11.27
2022-11-09T01:39:29.552Z,11.31
2022-11-09T01:41:57.762Z,11.34
2022-11-09T01:44:31.047Z,11.34
2022-11-09T01:47:04.656Z,11.36
2022-11-09T01:49:47.753Z,11.37
2022-11-09T01:52:24.863Z,11.35
2022-11-09T01:55:11.117Z,11.35
2022-11-09T02:00:51.193Z,11.32
2022-11-09T02:03:27.200Z,11.30
2022-11-09T02:06:04.572Z,11.32
2022-11-09T02:08:32.193Z,11.31
2022-11-09T02:11:08.011Z,11.31
2022-11-09T02:13:40.580Z,11.31
2022-11-09T02:16:13.911Z,11.32
2022-11-09T02:19:03.499Z,11.34
2022-11-09T02:21:32.794Z,11.37
2022-11-09T02:24:00.771Z,11.39
2022-11-09T02:27:01.483Z,11.43
2022-11-09T02:29:41.297Z,11.49
2022-11-09T02:32:24.503Z,11.57
2022-11-09T02:34:50.844Z,11.51
2022-11-09T02:37:50.118Z,11.38
2022-11-09T02:40:23.898Z,11.30
2022-11-09T02:42:50.285Z,11.23
2022-11-09T02:45:16.696Z,11.19
2022-11-09T02:47:43.044Z,11.15
2022-11-09T02:50:09.781Z,11.14
2022-11-09T02:52:36.175Z,11.11
2022-11-09T02:55:02.560Z,11.10
2022-11-09T02:57:28.879Z,11.08
2022-11-09T02:59:55.231Z,11.08
2022-11-09T03:02:21.846Z,11.07
2022-11-09T03:04:48.195Z,11.07
2022-11-09T03:07:14.637Z,11.08
2022-11-09T03:09:41.285Z,11.12
2022-11-09T03:12:26.350Z,11.20
2022-11-09T03:14:52.855Z,11.27
2022-11-09T03:17:19.307Z,11.36
2022-11-09T03:19:46.365Z,11.41
2022-11-09T03:24:47.356Z,11.34
2022-11-09T03:27:14.040Z,11.27
2022-11-09T03:29:40.427Z,11.19
2022-11-09T03:32:07.281Z,11.11
2022-11-09T03:34:33.673Z,11.06
2022-11-09T03:37:00.127Z,11.01
2022-11-09T03:39:26.542Z,10.96
2022-11-09T03:41:53.065Z,10.93
2022-11-09T03:44:20.532Z,10.90
2022-11-09T03:46:48.077Z,10.85
2022-11-09T03:49:14.483Z,10.84
2022-11-09T03:51:40.842Z,10.80
2022-11-09T03:54:07.225Z,10.78
2022-11-09T03:56:33.573Z,10.76
2022-11-09T03:58:59.924Z,10.74
2022-11-09T04:01:26.316Z,10.74
2022-11-09T04:03:52.780Z,10.71
2022-11-09T04:06:19.126Z,10.69
2022-11-09T04:08:50.909Z,10.69
2022-11-09T04:11:17.878Z,10.66
2022-11-09T04:13:44.288Z,10.62
2022-11-09T04:16:10.700Z,10.61
2022-11-09T04:18:37.142Z,10.60
2022-11-09T04:21:03.613Z,10.61
2022-11-09T04:23:30.147Z,10.56
2022-11-09T04:25:59.495Z,10.50
2022-11-09T04:28:26.329Z,10.46
2022-11-09T04:30:52.818Z,10.43
2022-11-09T04:33:19.921Z,10.42
2022-11-09T04:35:46.658Z,10.41
2022-11-09T04:38:14.349Z,10.42
2022-11-09T04:40:41.100Z,10.43
2022-11-09T04:43:12.782Z,10.43
2022-11-09T04:45:39.286Z,10.44
2022-11-09T04:48:07.436Z,10.41
2022-11-09T04:50:34.568Z,10.38
2022-11-09T04:53:11.756Z,10.35
2022-11-09T04:55:38.854Z,10.34
2022-11-09T04:58:05.536Z,10.32
2022-11-09T05:00:32.546Z,10.32
2022-11-09T05:03:03.335Z,10.29
2022-11-09T05:05:30.143Z,10.28
2022-11-09T05:07:56.594Z,10.23
2022-11-09T05:10:23.005Z,10.24
2022-11-09T05:12:49.402Z,10.22
2022-11-09T05:15:15.755Z,10.22
2022-11-09T05:17:42.270Z,10.22
2022-11-09T05:20:09.183Z,10.21
2022-11-09T05:22:58.610Z,10.22
2022-11-09T05:25:25.043Z,10.25
2022-11-09T05:27:51.987Z,10.25
2022-11-09T05:30:18.783Z,10.27
2022-11-09T05:32:45.159Z,10.28
2022-11-09T05:35:11.634Z,10.29
2022-11-09T05:37:38.900Z,10.31
2022-11-09T05:40:06.904Z,10.34
2022-11-09T05:42:33.244Z,10.35
2022-11-09T05:45:21.125Z,10.36
2022-11-09T05:47:45.960Z,10.38
2022-11-09T05:50:15.046Z,10.40
2022-11-09T05:52:41.408Z,10.41
2022-11-09T05:55:08.355Z,10.45
2022-11-09T05:57:34.716Z,10.45
2022-11-09T06:00:01.152Z,10.47
2022-11-09T06:02:31.064Z,10.48
2022-11-09T06:04:57.583Z,10.49
2022-11-09T06:07:23.919Z,10.50
2022-11-09T06:09:50.936Z,10.49
2022-11-09T06:12:17.307Z,10.50
2022-11-09T06:14:43.701Z,10.51
2022-11-09T06:17:10.065Z,10.49
2022-11-09T06:19:36.617Z,10.49
2022-11-09T06:22:03.000Z,10.49
2022-11-09T06:24:29.375Z,10.49
2022-11-09T06:26:55.707Z,10.49
2022-11-09T06:29:22.070Z,10.49
2022-11-09T06:31:48.988Z,10.51
2022-11-09T06:34:15.656Z,10.50
2022-11-09T06:36:42.507Z,10.51
2022-11-09T06:39:08.993Z,10.53
2022-11-09T06:41:36.026Z,10.53
2022-11-09T06:44:02.724Z,10.54
2022-11-09T06:46:29.111Z,10.54
2022-11-09T06:48:55.463Z,10.54
2022-11-09T06:51:21.950Z,10.56
2022-11-09T06:53:48.301Z,10.55
2022-11-09T06:56:14.748Z,10.55
2022-11-09T06:58:41.163Z,10.56
2022-11-09T07:01:10.509Z,10.56
2022-11-09T07:03:37.872Z,10.56
2022-11-09T07:06:08.513Z,10.57
2022-11-09T07:08:35.587Z,10.57
2022-11-09T07:11:06.872Z,10.59
2022-11-09T07:13:33.483Z,10.59
2022-11-09T07:16:00.057Z,10.60
2022-11-09T07:18:26.672Z,10.62
2022-11-09T07:20:53.183Z,10.65
2022-11-09T07:23:20.225Z,10.67
2022-11-09T07:25:46.993Z,10.69
2022-11-09T07:28:13.756Z,10.65
2022-11-09T07:30:40.216Z,10.61
2022-11-09T07:33:15.349Z,10.61
2022-11-09T07:35:42.055Z,10.62
2022-11-09T07:38:08.509Z,10.64
2022-11-09T07:40:34.992Z,10.67
2022-11-09T07:43:02.294Z,10.68
2022-11-09T07:45:29.806Z,10.68
2022-11-09T07:48:04.484Z,10.69
2022-11-09T07:50:32.020Z,10.73
2022-11-09T07:52:59.867Z,10.75
2022-11-09T07:55:27.914Z,10.76
2022-11-09T07:58:05.728Z,10.77
2022-11-09T08:00:34.096Z,10.80
2022-11-09T08:03:00.775Z,10.81
2022-11-09T08:05:27.357Z,10.84
2022-11-09T08:08:01.310Z,10.84
2022-11-09T08:10:29.352Z,10.87
2022-11-09T08:12:57.431Z,10.88
2022-11-09T08:15:24.951Z,10.88
2022-11-09T08:17:51.690Z,10.89
2022-11-09T08:20:19.901Z,10.89
2022-11-09T08:22:47.026Z,10.89
2022-11-09T08:25:15.024Z,10.90
2022-11-09T08:27:41.629Z,10.91
2022-11-09T08:30:12.928Z,10.93
2022-11-09T08:32:40.259Z,10.96
2022-11-09T08:35:07.337Z,10.99
2022-11-09T08:37:34.886Z,11.00
2022-11-09T08:40:01.557Z,11.03
2022-11-09T08:42:27.939Z,11.07
2022-11-09T08:44:54.377Z,11.11
2022-11-09T08:47:20.757Z,11.16
2022-11-09T08:49:47.215Z,11.20
2022-11-09T08:52:13.794Z,11.28
2022-11-09T08:54:40.180Z,11.34
2022-11-09T08:57:06.549Z,11.39
2022-11-09T08:59:32.992Z,11.45
2022-11-09T09:01:59.438Z,11.50
2022-11-09T09:04:25.899Z,11.58
2022-11-09T09:06:52.561Z,11.65
2022-11-09T09:09:19.382Z,11.69
2022-11-09T09:11:45.937Z,11.71
2022-11-09T09:14:12.369Z,11.69
2022-11-09T09:16:38.869Z,11.68
2022-11-09T09:19:05.297Z,11.69
2022-11-09T09:21:31.705Z,11.72
2022-11-09T09:23:58.121Z,11.76
2022-11-09T09:26:24.562Z,11.79
2022-11-09T09:28:51.628Z,11.82
2022-11-09T09:31:18.849Z,11.88
2022-11-09T09:33:46.413Z,11.93
2022-11-09T09:36:21.553Z,11.97
2022-11-09T09:38:54.328Z,12.03
2022-11-09T09:41:42.317Z,12.08
2022-11-09T09:44:46.339Z,12.11
2022-11-09T09:47:15.479Z,12.12
2022-11-09T09:50:09.420Z,12.11
2022-11-09T09:53:23.645Z,12.17
2022-11-09T09:55:59.861Z,12.22
2022-11-09T09:58:32.248Z,12.29
2022-11-09T10:01:08.761Z,12.35
2022-11-09T10:03:43.705Z,12.38
2022-11-09T10:06:25.675Z,12.41
2022-11-09T10:09:21.458Z,12.43
2022-11-09T10:12:07.993Z,12.44
2022-11-09T10:14:46.294Z,12.45
2022-11-09T10:17:35.175Z,12.47
2022-11-09T10:20:54.015Z,12.51
2022-11-09T10:23:39.845Z,12.56
2022-11-09T10:26:51.050Z,12.60
2022-11-09T10:29:27.294Z,12.63
2022-11-09T10:32:23.911Z,12.64
2022-11-09T10:35:07.678Z,12.70
2022-11-09T10:37:47.495Z,12.74
2022-11-09T10:43:18.364Z,12.87
2022-11-09T10:45:49.923Z,12.99
2022-11-09T10:48:43.367Z,13.11
2022-11-09T10:51:35.855Z,13.24
2022-11-09T10:54:35.618Z,13.31
2022-11-09T10:57:29.345Z,13.31
2022-11-09T11:00:04.329Z,13.29
2022-11-09T11:02:32.807Z,13.30
2022-11-09T11:05:00.183Z,13.31
2022-11-09T11:07:29.979Z,13.33
2022-11-09T11:10:09.832Z,13.34
2022-11-09T11:12:40.980Z,13.35
2022-11-09T11:15:27.701Z,13.38
2022-11-09T11:18:19.223Z,13.45
2022-11-09T11:21:13.782Z,13.51
2022-11-09T11:24:07.188Z,13.57
2022-11-09T11:27:51.625Z,13.63
2022-11-09T11:29:53.019Z,13.68
2022-11-09T11:32:24.237Z,13.71
2022-11-09T11:35:00.243Z,13.73
2022-11-09T11:37:47.201Z,13.73
2022-11-09T11:40:34.782Z,13.69
2022-11-09T11:43:19.479Z,13.69
2022-11-09T11:46:41.855Z,13.66
2022-11-09T11:49:27.343Z,13.65
2022-11-09T11:52:13.525Z,13.61
2022-11-09T11:55:00.099Z,13.62
2022-11-09T11:58:06.903Z,13.60
2022-11-09T12:00:52.996Z,13.63
2022-11-09T12:03:32.290Z,13.66
2022-11-09T12:06:15.448Z,13.72
2022-11-09T12:09:02.781Z,13.74
2022-11-09T12:11:42.112Z,13.74
2022-11-09T12:14:28.179Z,13.74
2022-11-09T12:17:22.367Z,13.74
2022-11-09T12:20:07.477Z,13.73
2022-11-09T12:23:04.763Z,13.74
2022-11-09T12:25:56.483Z,13.76
2022-11-09T12:28:36.083Z,13.75
2022-11-09T12:31:39.983Z,13.77
2022-11-09T12:34:22.438Z,13.79
2022-11-09T12:37:08.540Z,13.81
2022-11-09T12:39:44.697Z,13.82
2022-11-09T12:42:30.064Z,13.84
2022-11-09T12:45:14.472Z,13.86
2022-11-09T12:47:47.747Z,13.92
2022-11-09T12:50:21.372Z,13.98
2022-11-09T12:52:53.017Z,14.01
2022-11-09T12:55:41.507Z,14.04
2022-11-09T12:58:26.041Z,14.09
2022-11-09T13:01:18.531Z,14.12
2022-11-09T13:03:59.898Z,14.13
2022-11-09T13:06:27.065Z,14.14
2022-11-09T13:09:16.004Z,14.17
2022-11-09T13:11:49.365Z,14.18
2022-11-09T13:14:22.735Z,14.19
2022-11-09T13:16:58.342Z,14.18
2022-11-09T13:19:34.931Z,14.14
2022-11-09T13:22:06.580Z,14.13
2022-11-09T13:24:58.186Z,14.10
2022-11-09T13:27:47.698Z,14.06
2022-11-09T13:30:28.681Z,14.04
2022-11-09T13:33:22.149Z,14.01
2022-11-09T13:35:56.128Z,14.01
2022-11-09T13:38:28.904Z,14.02
2022-11-09T13:41:23.871Z,14.01
2022-11-09T13:44:13.888Z,14.01
2022-11-09T13:46:40.378Z,14.03
2022-11-09T13:49:38.814Z,14.02
2022-11-09T13:52:48.803Z,14.01
2022-11-09T13:55:37.093Z,14.02
2022-11-09T13:58:28.224Z,13.99
2022-11-09T14:00:54.802Z,13.95
2022-11-09T14:03:26.328Z,13.94
2022-11-09T14:05:57.230Z,13.92
2022-11-09T14:08:25.331Z,13.91
2022-11-09T14:11:14.709Z,13.89
2022-11-09T14:14:06.943Z,13.88
2022-11-09T14:16:50.421Z,13.85
2022-11-09T14:19:43.928Z,13.83
2022-11-09T14:22:19.576Z,13.80
2022-11-09T14:24:46.790Z,13.78
2022-11-09T14:27:16.833Z,13.77
2022-11-09T14:29:54.139Z,13.75
2022-11-09T14:32:36.287Z,13.73
2022-11-09T14:35:34.423Z,13.71
2022-11-09T14:38:15.048Z,13.68
2022-11-09T14:40:46.111Z,13.68
2022-11-09T14:43:15.798Z,13.65
2022-11-09T14:46:12.888Z,13.65
2022-11-09T14:48:45.911Z,13.66
2022-11-09T14:51:19.556Z,13.66
2022-11-09T14:53:49.498Z,13.68
2022-11-09T14:56:34.978Z,13.69
2022-11-09T14:59:09.004Z,13.65
2022-11-09T15:01:45.491Z,13.60
2022-11-09T15:04:24.623Z,13.56
2022-11-09T15:07:06.445Z,13.50
2022-11-09T15:09:51.410Z,13.45
2022-11-09T15:12:24.211Z,13.43
2022-11-09T15:15:02.236Z,13.40
2022-11-09T15:17:37.257Z,13.36
2022-11-09T15:20:14.046Z,13.34
2022-11-09T15:23:04.755Z,13.29
2022-11-09T15:25:47.831Z,13.27
2022-11-09T15:28:36.769Z,13.27
2022-11-09T15:34:03.103Z,13.20
2022-11-09T15:37:07.293Z,13.18
2022-11-09T15:39:38.112Z,13.18
2022-11-09T15:42:20.813Z,13.23
2022-11-09T15:45:00.300Z,13.27
2022-11-09T15:47:38.532Z,13.27
2022-11-09T15:50:23.345Z,13.26
2022-11-09T15:52:50.956Z,13.25
2022-11-09T15:55:21.958Z,13.23
2022-11-09T15:57:52.016Z,13.22
2022-11-09T16:00:21.223Z,13.22
2022-11-09T16:02:48.017Z,13.22
2022-11-09T16:05:15.639Z,13.22
2022-11-09T16:07:53.411Z,13.22
2022-11-09T16:10:23.259Z,13.18
2022-11-09T16:12:59.186Z,13.14
2022-11-09T16:15:27.315Z,13.09
2022-11-09T16:17:58.301Z,13.06
2022-11-09T16:20:28.653Z,13.03
2022-11-09T16:23:06.365Z,13.00
2022-11-09T16:25:39.347Z,12.98
2022-11-09T16:28:10.965Z,12.94
2022-11-09T16:30:41.631Z,12.92
2022-11-09T16:33:12.450Z,12.87
2022-11-09T16:35:40.509Z,12.87
2022-11-09T16:38:13.702Z,12.84
2022-11-09T16:40:41.491Z,12.84
2022-11-09T16:43:09.299Z,12.83
2022-11-09T16:46:08.152Z,12.83
2022-11-09T16:48:36.225Z,12.83
2022-11-09T16:51:04.405Z,12.81
2022-11-09T16:53:35.134Z,12.79
2022-11-09T16:56:10.947Z,12.80
2022-11-09T16:58:38.745Z,12.78
2022-11-09T17:01:11.965Z,12.77
2022-11-09T17:03:40.423Z,12.79
2022-11-09T17:09:19.792Z,12.80
2022-11-09T17:16:07.270Z,12.79
2022-11-09T17:19:13.184Z,12.77
2022-11-09T17:30:22.425Z,12.72
2022-11-09T17:42:52.327Z,12.61
2022-11-09T17:52:27.390Z,12.55
2022-11-09T17:55:05.241Z,12.54
2022-11-09T18:07:26.186Z,12.50
2022-11-09T18:08:18.089Z,12.51
2022-11-09T18:10:27.807Z,12.49
2022-11-09T18:12:54.278Z,12.49
2022-11-09T18:15:20.691Z,12.49
2022-11-09T18:17:47.073Z,12.47
2022-11-09T18:20:15.926Z,12.47
2022-11-09T18:22:42.546Z,12.47
2022-11-09T18:25:09.456Z,12.46
2022-11-09T18:27:36.058Z,12.44
2022-11-09T18:30:11.442Z,12.42
2022-11-09T18:32:37.826Z,12.42
2022-11-09T18:35:04.603Z,12.40
2022-11-09T18:37:37.028Z,12.39
2022-11-09T18:40:05.009Z,12.40
2022-11-09T18:42:31.810Z,12.39
2022-11-09T18:44:58.358Z,12.39
2022-11-09T18:47:25.462Z,12.39
2022-11-09T18:49:52.483Z,12.40
2022-11-09T18:52:19.044Z,12.40
2022-11-09T18:54:45.456Z,12.42
2022-11-09T18:57:15.939Z,12.43
2022-11-09T18:59:45.025Z,12.44
2022-11-09T19:02:13.614Z,12.44
2022-11-09T19:04:40.279Z,12.41
2022-11-09T19:07:06.766Z,12.41
2022-11-09T19:09:35.850Z,12.41
2022-11-09T19:12:08.572Z,12.40
2022-11-09T19:14:45.207Z,12.38
2022-11-09T19:17:26.567Z,12.38
2022-11-09T19:20:28.852Z,12.38
2022-11-09T19:23:52.736Z,12.38
2022-11-09T19:26:36.482Z,12.38
2022-11-09T19:31:57.322Z,12.37
2022-11-09T19:34:24.825Z,12.37
2022-11-09T19:37:00.007Z,12.36
2022-11-09T19:39:33.489Z,12.34
2022-11-09T19:42:10.523Z,12.33
2022-11-09T19:44:38.305Z,12.31
2022-11-09T19:53:53.323Z,12.30
2022-11-09T19:56:46.895Z,12.29
2022-11-09T20:02:48.646Z,12.27
2022-11-09T20:05:16.850Z,12.28
2022-11-09T20:08:10.210Z,12.27
2022-11-09T20:10:44.107Z,12.27
2022-11-09T20:13:12.784Z,12.27
2022-11-09T20:15:41.100Z,12.25
2022-11-09T20:21:53.697Z,12.24
2022-11-09T20:24:36.910Z,12.24
2022-11-09T20:27:33.688Z,12.24
2022-11-09T20:30:21.564Z,12.24
2022-11-09T20:32:52.973Z,12.23
2022-11-09T20:35:26.260Z,12.24
2022-11-09T20:37:54.349Z,12.25
2022-11-09T20:40:25.079Z,12.25
2022-11-09T20:42:53.462Z,12.26
2022-11-09T20:45:21.611Z,12.26
2022-11-09T20:48:07.724Z,12.25
2022-11-09T20:50:40.225Z,12.25
2022-11-09T20:53:11.453Z,12.27
2022-11-09T20:55:43.297Z,12.25
2022-11-09T20:58:17.257Z,12.23
2022-11-09T21:00:45.471Z,12.20
2022-11-09T21:06:46.252Z,12.18
2022-11-09T21:12:24.516Z,12.17
2022-11-09T21:14:51.565Z,12.16
2022-11-09T21:17:17.950Z,12.15
2022-11-09T21:19:44.332Z,12.09
2022-11-09T21:22:11.438Z,12.06
2022-11-09T21:25:00.301Z,12.01
2022-11-09T21:27:48.028Z,11.93
2022-11-09T21:30:14.983Z,11.86
2022-11-09T21:32:41.467Z,11.85
2022-11-09T21:35:08.328Z,11.78
2022-11-09T21:37:34.716Z,11.75
2022-11-09T21:40:01.196Z,11.69
2022-11-09T21:42:27.930Z,11.71
2022-11-09T21:44:54.366Z,11.70
2022-11-09T21:47:22.914Z,11.67
2022-11-09T21:49:49.464Z,11.68
2022-11-09T21:52:16.204Z,11.66
2022-11-09T21:54:42.685Z,11.66
2022-11-09T21:57:09.178Z,11.59
2022-11-09T21:59:35.766Z,11.61
2022-11-09T22:02:02.285Z,11.64
2022-11-09T22:04:28.809Z,11.60
2022-11-09T22:06:56.802Z,11.62
2022-11-09T22:09:23.268Z,11.59
2022-11-09T22:12:08.548Z,11.60
2022-11-09T22:14:53.539Z,11.60
2022-11-09T22:17:20.072Z,11.59
2022-11-09T22:20:05.293Z,11.57
2022-11-09T22:22:32.268Z,11.56
2022-11-09T22:24:58.963Z,11.56
2022-11-09T22:27:25.530Z,11.54
2022-11-09T22:29:52.128Z,11.55
2022-11-09T22:32:18.576Z,11.57
2022-11-09T22:34:45.145Z,11.54
2022-11-09T22:37:11.918Z,11.55
2022-11-09T22:39:42.979Z,11.55
2022-11-09T22:42:12.661Z,11.55
2022-11-09T22:44:39.282Z,11.54
2022-11-09T22:47:06.055Z,11.54
2022-11-09T22:49:32.519Z,11.52
2022-11-09T22:51:59.188Z,11.52
2022-11-09T22:54:26.108Z,11.48
2022-11-09T22:56:52.577Z,11.48
2022-11-09T22:59:19.051Z,11.48
2022-11-09T23:01:45.798Z,11.49
2022-11-09T23:04:12.441Z,11.47
2022-11-09T23:06:39.066Z,11.47
2022-11-09T23:09:06.470Z,11.45
2022-11-09T23:11:32.920Z,11.46
2022-11-09T23:13:59.435Z,11.51
2022-11-09T23:16:26.405Z,11.54
2022-11-09T23:18:55.862Z,11.55
2022-11-09T23:21:27.063Z,11.56
2022-11-09T23:23:55.722Z,11.59
2022-11-09T23:26:23.058Z,11.56
2022-11-09T23:28:49.705Z,11.59
2022-11-09T23:31:19.516Z,11.59
2022-11-09T23:33:49.050Z,11.58
2022-11-09T23:36:15.440Z,11.61
2022-11-09T23:38:42.001Z,11.61
2022-11-09T23:41:10.692Z,11.64
2022-11-09T23:43:37.732Z,11.64
2022-11-09T23:46:08.509Z,11.62
2022-11-09T23:48:35.109Z,11.62
2022-11-09T23:51:02.503Z,11.59
2022-11-09T23:53:30.263Z,11.60
2022-11-09T23:56:05.248Z,11.57
2022-11-09T23:58:32.465Z,11.59
